createdAt,value
2023-01-12T00:02:13.322Z,100.00
2023-01-12T00:06:16.461Z,100.00
2023-01-12T00:10:18.681Z,100.00
2023-01-12T00:14:20.964Z,100.00
2023-01-12T00:18:23.235Z,100.00
2023-01-12T00:22:25.444Z,100.00
2023-01-12T00:26:27.551Z,100.00
2023-01-12T00:30:29.916Z,100.00
2023-01-12T00:34:32.493Z,100.00
2023-01-12T00:38:36.571Z,100.00
2023-01-12T00:42:57.361Z,100.00
2023-01-12T00:46:59.537Z,100.00
2023-01-12T00:51:05.227Z,100.00
2023-01-12T00:55:08.740Z,100.00
2023-01-12T00:59:10.991Z,100.00
2023-01-12T01:03:13.304Z,100.00
2023-01-12T01:07:16.329Z,100.00
2023-01-12T01:11:18.680Z,100.00
2023-01-12T01:15:20.934Z,100.00
2023-01-12T01:19:23.363Z,100.00
2023-01-12T01:23:27.010Z,100.00
2023-01-12T01:27:29.230Z,100.00
2023-01-12T01:31:31.560Z,100.00
2023-01-12T01:35:33.726Z,100.00
2023-01-12T01:39:36.044Z,100.00
2023-01-12T01:44:24.539Z,100.00
2023-01-12T01:48:29.159Z,100.00
2023-01-12T01:52:36.209Z,100.00
2023-01-12T01:56:38.498Z,100.00
2023-01-12T02:00:42.663Z,100.00
2023-01-12T02:04:45.346Z,100.00
2023-01-12T02:08:54.004Z,100.00
2023-01-12T02:13:14.694Z,100.00
2023-01-12T02:17:41.698Z,100.00
2023-01-12T02:22:10.113Z,100.00
2023-01-12T02:26:24.345Z,100.00
2023-01-12T02:30:46.521Z,100.00
2023-01-12T02:35:22.392Z,100.00
2023-01-12T02:39:28.153Z,100.00
2023-01-12T02:43:33.205Z,100.00
2023-01-12T02:47:52.247Z,100.00
2023-01-12T02:52:07.690Z,100.00
2023-01-12T02:56:14.146Z,100.00
2023-01-12T03:00:18.636Z,100.00
2023-01-12T03:04:22.692Z,100.00
2023-01-12T03:08:29.209Z,100.00
2023-01-12T03:12:38.463Z,100.00
2023-01-12T03:16:42.227Z,100.00
2023-01-12T03:20:52.043Z,100.00
2023-01-12T03:25:02.465Z,100.00
2023-01-12T03:29:16.156Z,100.00
2023-01-12T03:33:19.384Z,100.00
2023-01-12T03:37:39.831Z,100.00
2023-01-12T03:42:07.734Z,100.00
2023-01-12T03:46:16.415Z,100.00
2023-01-12T03:50:25.612Z,100.00
2023-01-12T03:54:29.834Z,100.00
2023-01-12T03:58:34.983Z,100.00
2023-01-12T04:02:37.269Z,100.00
2023-01-12T04:06:39.478Z,100.00
2023-01-12T04:10:41.708Z,100.00
2023-01-12T04:14:48.069Z,100.00
2023-01-12T04:18:50.414Z,100.00
2023-01-12T04:22:52.603Z,100.00
2023-01-12T04:26:54.896Z,100.00
2023-01-12T04:30:57.085Z,100.00
2023-01-12T04:34:59.255Z,100.00
2023-01-12T04:39:01.639Z,100.00
2023-01-12T04:43:11.071Z,100.00
2023-01-12T04:47:13.368Z,100.00
2023-01-12T04:51:15.765Z,100.00
2023-01-12T04:55:18.089Z,100.00
2023-01-12T04:59:20.341Z,100.00
2023-01-12T05:03:22.606Z,100.00
2023-01-12T05:07:24.943Z,100.00
2023-01-12T05:11:28.653Z,100.00
2023-01-12T05:15:30.839Z,100.00
2023-01-12T05:19:33.080Z,100.00
2023-01-12T05:23:35.502Z,100.00
2023-01-12T05:27:37.795Z,100.00
2023-01-12T05:31:40.445Z,100.00
2023-01-12T05:35:42.651Z,100.00
2023-01-12T05:39:44.882Z,100.00
2023-01-12T05:43:53.210Z,100.00
2023-01-12T05:48:02.498Z,100.00
2023-01-12T05:52:05.119Z,100.00
2023-01-12T05:56:10.549Z,100.00
2023-01-12T06:00:13.376Z,100.00
2023-01-12T06:04:15.662Z,100.00
2023-01-12T06:08:17.959Z,100.00
2023-01-12T06:12:38.781Z,100.00
2023-01-12T06:16:43.030Z,100.00
2023-01-12T06:20:45.355Z,100.00
2023-01-12T06:24:49.315Z,100.00
2023-01-12T06:28:51.571Z,100.00
2023-01-12T06:32:53.881Z,100.00
2023-01-12T06:36:56.074Z,100.00
2023-01-12T06:41:30.002Z,100.00
2023-01-12T06:45:32.276Z,100.00
2023-01-12T06:49:34.470Z,100.00
2023-01-12T06:53:36.796Z,100.00
2023-01-12T06:57:39.056Z,100.00
2023-01-12T07:01:41.723Z,100.00
2023-01-12T07:05:44.242Z,100.00
2023-01-12T07:09:46.653Z,100.00
2023-01-12T07:13:48.850Z,100.00
2023-01-12T07:17:56.169Z,100.00
2023-01-12T07:21:58.392Z,100.00
2023-01-12T07:26:00.985Z,100.00
2023-01-12T07:30:04.660Z,100.00
2023-01-12T07:34:06.905Z,100.00
2023-01-12T07:38:09.983Z,100.00
2023-01-12T07:42:24.478Z,100.00
2023-01-12T07:46:27.518Z,100.00
2023-01-12T07:50:29.924Z,100.00
2023-01-12T07:54:33.878Z,100.00
2023-01-12T07:58:37.524Z,100.00
2023-01-12T08:02:39.974Z,100.00
2023-01-12T08:06:42.643Z,100.00
2023-01-12T08:10:47.652Z,100.00
2023-01-12T08:14:49.941Z,100.00
2023-01-12T08:19:01.566Z,100.00
2023-01-12T08:23:28.308Z,100.00
2023-01-12T08:27:33.585Z,100.00
2023-01-12T08:31:36.478Z,100.00
2023-01-12T08:35:39.325Z,100.00
2023-01-12T08:39:42.138Z,100.00
2023-01-12T08:44:02.446Z,100.00
2023-01-12T08:48:05.663Z,100.00
2023-01-12T08:52:07.819Z,100.00
2023-01-12T08:56:10.296Z,100.00
2023-01-12T09:00:12.954Z,100.00
2023-01-12T09:04:15.281Z,100.00
2023-01-12T09:08:17.712Z,100.00
2023-01-12T09:12:20.093Z,92.21
2023-01-12T09:16:23.147Z,96.57
2023-01-12T09:20:25.392Z,96.86
2023-01-12T09:24:27.788Z,91.89
2023-01-12T09:28:30.151Z,82.30
2023-01-12T09:32:36.766Z,88.68
2023-01-12T09:36:40.456Z,91.54
2023-01-12T09:40:43.952Z,88.99
2023-01-12T09:45:10.080Z,84.06
2023-01-12T09:49:13.742Z,79.22
2023-01-12T09:53:21.464Z,81.99
2023-01-12T09:57:42.424Z,78.00
2023-01-12T10:01:45.977Z,84.31
2023-01-12T10:05:58.118Z,88.75
2023-01-12T10:10:00.528Z,89.84
2023-01-12T10:14:24.193Z,86.48
2023-01-12T10:18:47.450Z,81.23
2023-01-12T10:22:49.847Z,87.02
2023-01-12T10:27:00.593Z,76.50
2023-01-12T10:31:03.855Z,87.75
2023-01-12T10:35:14.425Z,78.00
2023-01-12T10:39:31.938Z,75.59
2023-01-12T10:43:36.924Z,83.68
2023-01-12T10:47:40.717Z,76.42
2023-01-12T10:51:58.029Z,69.50
2023-01-12T10:56:03.056Z,77.51
2023-01-12T11:00:05.934Z,77.27
2023-01-12T11:04:15.261Z,76.92
2023-01-12T11:08:27.200Z,77.26
2023-01-12T11:12:32.277Z,80.17
2023-01-12T11:16:50.482Z,67.56
2023-01-12T11:21:07.908Z,76.06
2023-01-12T11:25:17.768Z,76.36
2023-01-12T11:29:35.009Z,75.11
2023-01-12T11:33:44.407Z,65.69
2023-01-12T11:37:53.317Z,75.11
2023-01-12T11:42:17.503Z,70.11
2023-01-12T11:46:42.660Z,61.26
2023-01-12T11:50:47.582Z,67.30
2023-01-12T11:54:49.974Z,69.52
2023-01-12T11:59:07.457Z,66.30
2023-01-12T12:03:49.036Z,62.24
2023-01-12T12:08:06.840Z,60.91
2023-01-12T12:12:23.439Z,59.80
2023-01-12T12:16:39.704Z,66.00
2023-01-12T12:21:12.459Z,63.35
2023-01-12T12:25:27.063Z,64.33
2023-01-12T12:30:19.374Z,61.46
2023-01-12T12:34:55.493Z,64.59
2023-01-12T12:39:12.888Z,62.71
2023-01-12T12:43:41.864Z,64.18
2023-01-12T12:48:02.161Z,61.85
2023-01-12T12:52:05.654Z,68.11
2023-01-12T12:56:11.503Z,68.38
2023-01-12T13:00:43.606Z,69.99
2023-01-12T13:04:46.463Z,69.39
2023-01-12T13:08:51.252Z,68.73
2023-01-12T13:12:59.048Z,69.18
2023-01-12T13:17:02.199Z,70.77
2023-01-12T13:21:05.666Z,72.78
2023-01-12T13:25:16.718Z,68.08
2023-01-12T13:29:28.123Z,63.44
2023-01-12T13:33:30.373Z,69.80
2023-01-12T13:37:52.440Z,63.34
2023-01-12T13:42:14.212Z,70.07
2023-01-12T13:46:20.527Z,71.11
2023-01-12T13:50:25.553Z,70.70
2023-01-12T13:54:29.843Z,71.01
2023-01-12T13:58:41.344Z,70.21
2023-01-12T14:02:43.775Z,73.04
2023-01-12T14:07:30.741Z,69.49
2023-01-12T14:11:38.914Z,71.65
2023-01-12T14:16:03.140Z,74.90
2023-01-12T14:20:16.448Z,70.04
2023-01-12T14:24:23.683Z,69.74
2023-01-12T14:28:26.192Z,71.81
2023-01-12T14:32:29.873Z,73.33
2023-01-12T14:36:42.603Z,71.44
2023-01-12T14:40:58.349Z,72.92
2023-01-12T14:45:18.966Z,75.73
2023-01-12T14:49:28.789Z,73.24
2023-01-12T14:53:39.329Z,74.37
2023-01-12T14:57:42.475Z,76.02
2023-01-12T15:01:44.768Z,76.60
2023-01-12T15:05:52.512Z,76.38
2023-01-12T15:09:58.153Z,78.51
2023-01-12T15:14:02.025Z,79.08
2023-01-12T15:18:22.661Z,79.05
2023-01-12T15:22:47.449Z,78.84
2023-01-12T15:27:01.910Z,79.92
2023-01-12T15:31:28.234Z,78.77
2023-01-12T15:35:30.717Z,81.32
2023-01-12T15:39:32.904Z,83.55
2023-01-12T15:43:35.060Z,84.35
2023-01-12T15:47:37.236Z,86.01
2023-01-12T15:51:40.404Z,87.97
2023-01-12T15:55:42.948Z,89.97
2023-01-12T15:59:45.229Z,92.88
2023-01-12T16:04:15.044Z,95.46
2023-01-12T16:08:09.592Z,96.69
2023-01-12T16:12:11.770Z,96.84
2023-01-12T16:16:16.682Z,96.85
2023-01-12T16:20:20.359Z,98.21
2023-01-12T16:24:26.699Z,98.39
2023-01-12T16:28:29.250Z,100.00
2023-01-12T16:32:31.535Z,98.00
2023-01-12T16:36:33.944Z,99.08
2023-01-12T16:40:43.474Z,100.00
2023-01-12T16:44:45.622Z,99.14
2023-01-12T16:48:48.312Z,98.69
2023-01-12T16:52:50.625Z,99.18
2023-01-12T16:56:54.070Z,100.00
2023-01-12T17:00:58.685Z,100.00
2023-01-12T17:05:02.725Z,100.00
2023-01-12T17:09:06.624Z,100.00
2023-01-12T17:13:08.981Z,100.00
2023-01-12T17:17:12.594Z,99.37
2023-01-12T17:21:15.303Z,99.49
2023-01-12T17:25:17.741Z,99.73
2023-01-12T17:29:20.851Z,100.00
2023-01-12T17:33:23.365Z,100.00
2023-01-12T17:37:26.133Z,100.00
2023-01-12T17:41:46.843Z,100.00
2023-01-12T17:45:49.053Z,100.00
2023-01-12T17:49:52.758Z,100.00
2023-01-12T17:54:00.115Z,100.00
2023-01-12T17:58:03.189Z,100.00
2023-01-12T18:02:05.878Z,100.00
2023-01-12T18:06:12.015Z,100.00
2023-01-12T18:10:17.691Z,100.00
2023-01-12T18:14:21.681Z,100.00
2023-01-12T18:18:23.946Z,100.00
2023-01-12T18:22:26.431Z,100.00
2023-01-12T18:26:31.588Z,100.00
2023-01-12T18:30:33.893Z,100.00
2023-01-12T18:34:41.990Z,100.00
2023-01-12T18:38:46.025Z,100.00
2023-01-12T18:42:53.514Z,100.00
2023-01-12T18:47:16.680Z,100.00
2023-01-12T18:51:37.400Z,100.00
2023-01-12T18:55:41.539Z,100.00
2023-01-12T18:59:44.132Z,100.00
2023-01-12T19:03:46.515Z,100.00
2023-01-12T19:07:51.642Z,100.00
2023-01-12T19:11:53.753Z,100.00
2023-01-12T19:16:18.242Z,100.00
2023-01-12T19:20:21.364Z,100.00
2023-01-12T19:24:42.614Z,100.00
2023-01-12T19:28:44.741Z,100.00
2023-01-12T19:32:47.042Z,100.00
2023-01-12T19:36:49.915Z,100.00
2023-01-12T19:40:54.507Z,100.00
2023-01-12T19:44:56.849Z,100.00
2023-01-12T19:48:58.920Z,100.00
2023-01-12T19:53:01.164Z,100.00
2023-01-12T19:57:03.680Z,100.00
2023-01-12T20:01:05.901Z,100.00
2023-01-12T20:05:13.173Z,100.00
2023-01-12T20:09:15.812Z,100.00
2023-01-12T20:13:18.374Z,100.00
2023-01-12T20:17:20.829Z,100.00
2023-01-12T20:21:23.406Z,100.00
2023-01-12T20:25:28.107Z,100.00
2023-01-12T20:29:30.380Z,100.00
2023-01-12T20:33:32.660Z,100.00
2023-01-12T20:37:35.019Z,100.00
2023-01-12T20:41:39.406Z,100.00
2023-01-12T20:45:43.232Z,100.00
2023-01-12T20:49:47.243Z,100.00
2023-01-12T20:53:49.438Z,100.00
2023-01-12T20:57:51.639Z,100.00
2023-01-12T21:01:53.986Z,100.00
2023-01-12T21:05:56.330Z,100.00
2023-01-12T21:09:58.524Z,100.00
2023-01-12T21:14:00.693Z,100.00
2023-01-12T21:18:03.076Z,100.00
2023-01-12T21:22:05.482Z,100.00
2023-01-12T21:26:08.384Z,100.00
2023-01-12T21:30:12.596Z,100.00
2023-01-12T21:34:15.285Z,100.00
2023-01-12T21:38:18.205Z,100.00
2023-01-12T21:42:38.817Z,100.00
2023-01-12T21:46:40.898Z,100.00
2023-01-12T21:50:43.688Z,100.00
2023-01-12T21:54:45.979Z,100.00
2023-01-12T21:58:48.358Z,100.00
2023-01-12T22:02:53.742Z,100.00
2023-01-12T22:06:56.350Z,100.00
2023-01-12T22:11:07.557Z,100.00
2023-01-12T22:15:10.081Z,100.00
2023-01-12T22:19:12.323Z,100.00
2023-01-12T22:23:14.520Z,100.00
2023-01-12T22:27:16.811Z,100.00
2023-01-12T22:31:21.423Z,100.00
2023-01-12T22:35:23.612Z,100.00
2023-01-12T22:39:25.688Z,100.00
2023-01-12T22:43:27.868Z,100.00
2023-01-12T22:47:30.499Z,100.00
2023-01-12T22:51:32.692Z,100.00
2023-01-12T22:55:34.842Z,100.00
2023-01-12T22:59:37.151Z,100.00
2023-01-12T23:03:39.283Z,100.00
2023-01-12T23:07:41.370Z,100.00
2023-01-12T23:11:43.401Z,100.00
2023-01-12T23:15:56.847Z,100.00
2023-01-12T23:19:59.549Z,100.00
2023-01-12T23:24:01.618Z,100.00
2023-01-12T23:28:04.816Z,100.00
2023-01-12T23:32:06.919Z,100.00
2023-01-12T23:36:12.700Z,100.00
2023-01-12T23:40:14.977Z,100.00
2023-01-12T23:44:17.669Z,100.00
2023-01-12T23:48:19.842Z,100.00
2023-01-12T23:52:21.911Z,100.00
2023-01-12T23:56:24.085Z,100.00
